TFM - Tactical Decision Aid (Experimental) INFO Settings

ID: Runway Winds: CIG/VIS Threshold: METAR Board: Map:

KDFW - Dallas/Fort Worth Intl

Updated at: 0530 UTC 28 Nov 2014
Latest TAF at: 0520 UTC 28 Nov 2014

TAF Board

Time0453Z28/06Z28/07Z28/08Z28/09Z28/10Z28/11Z28/12Z28/13Z28/14Z28/15Z28/16Z28/17Z28/18Z
TypeOBSPRVLPRVLPRVLPRVLPRVLPRVLPRVLPRVLPRVLPRVLPRVLPRVLPRVL
VIS10>6>6>6>6>6>6>6>6>6>6>6>6>6
CIG----------------------------
CoverCLRSKCSKCSKCSKCSKCSKCSKCSKCSKCFEWFEWFEWFEW
FltCat--VFRVFRVFRVFRVFRVFRVFRVFRVFRVFRVFRVFRVFR
WX----------------------------
WDir180170170170170170170170170170180180180180
WSpd544444444418181818
WGst----------------------------
TAF
KDFW 280520Z 2806/2912 17004KT P6SM SKC WS015/18035KT
  FM281500 18018KT P6SM FEW030


METAR
KDFW 280453Z 18005KT 10SM CLR 07/M03 A3036 RMK AO2 SLP281 T00671028

TAF/METAR Board Legend

Potential Impact
  None Marginal Slight Moderate High
Visibility (sm) >5 3≤X≤5 1≤X<3 0.5≤X<1 <0.5
Ceiling (100 ft) >30 10≤X≤30 4≤X<10 2≤X<4 <2
Wind Speed (kt) <10 10≤X<20 20≤X<30 ≥30
Wind Gust (kt) <15 15≤X<25 25≤X<35 ≥35
Weather No Wx Reported VCTS -TS,-FZRA TS,FZRA +TS,+FZRA